LFBU/ANG METAR and TAF weather

Enter ICAO airport designator
Station Type Date Time Source
LFBU METAR 2022/05/24 12:00 UTC NOAA

LFBU 241200Z AUTO 25005KT 150V280 6000 -RA FEW021/// SCT027/// BKN040/// ///CB 12/09 Q1013 TEMPO 27015G25KT 3000 SHRA


Station Type Date Time Source
LFBU Decoded METAR 2022/05/24 12:00 UTC NOAA

Station name not available
May 24, 2022 - 08:00 AM EDT / 2022.05.24 1200 UTC
Wind: from the WSW (250 degrees) at 6 MPH (5 KT) (direction variable):0
Visibility: 3 mile(s):0
Sky conditions: mostly cloudy
Weather: light rain; Cumulonimbus clouds observed
Temperature: 53 F (12 C)
Dew Point: 48 F (9 C)
Relative Humidity: 81%
Pressure (altimeter): 29.91 in. Hg (1013 hPa)
ob: LFBU 241200Z AUTO 25005KT 150V280 6000 -RA FEW021/// SCT027/// BKN040/// ///CB 12/09 Q1013 TEMPO 27015G25KT 3000 SHRA
cycle: 12

Station Type Date Time Source
LFBU TAF 2022/05/24 12:00 UTC NOAA

TAF LFBU 241100Z 2412/2512 25008KT 9999 BKN030
TEMPO 2412/2418 27015G25KT 3000 SHRA BKN030TCU PROB40
TEMPO 2412/2416 -TSRA BKN025CB PROB30
TEMPO 2504/2507 2000 BR
TEMPO 2510/2512 -SHRA

Example: see airport list